Time;durP1;ratioP1;P1;durP2;ratioP2;P2;SDS_P1;SDS_P2;PMS_P1;PMS_P2;Temp;Humidity;BMP_temperature;BMP_pressure;BME280_temperature;BME280_humidity;BME280_pressure;Samples;Min_cycle;Max_cycle;Signal;HPM_P1;HPM_P2
2021/09/29 00:01:01;;;;;;;12.50;8.18;;;13.40;99.90;;;;;;6301841;22;20009;-78
2021/09/29 00:03:26;;;;;;;11.10;7.95;;;13.40;99.90;;;;;;6302369;22;20308;-78
2021/09/29 00:05:52;;;;;;;13.63;9.13;;;13.40;99.90;;;;;;6302516;22;20003;-78
2021/09/29 00:08:17;;;;;;;10.30;8.02;;;13.40;99.90;;;;;;6300442;22;20042;-78
2021/09/29 00:10:43;;;;;;;12.90;9.32;;;13.40;99.90;;;;;;6301195;22;20004;-79
2021/09/29 00:13:09;;;;;;;13.20;9.30;;;13.40;99.90;;;;;;6303373;22;20414;-77
2021/09/29 00:15:35;;;;;;;11.93;9.15;;;13.40;99.90;;;;;;6302042;22;19999;-78
2021/09/29 00:18:01;;;;;;;11.98;9.18;;;13.40;99.90;;;;;;6302154;22;19996;-78
2021/09/29 00:20:27;;;;;;;16.10;10.07;;;13.40;99.90;;;;;;6302724;22;20003;-76
2021/09/29 00:22:52;;;;;;;11.55;8.35;;;13.40;99.90;;;;;;6301217;22;20052;-77
2021/09/29 00:25:18;;;;;;;12.77;9.00;;;13.30;99.90;;;;;;6301861;22;20011;-77
2021/09/29 00:27:44;;;;;;;11.85;9.57;;;13.30;99.90;;;;;;6301955;22;20389;-78
2021/09/29 00:30:10;;;;;;;12.13;8.98;;;13.30;99.90;;;;;;6301903;22;20014;-77
2021/09/29 00:32:40;;;;;;;13.43;9.18;;;13.20;99.90;;;;;;6302992;22;19995;-78
2021/09/29 00:35:07;;;;;;;10.90;8.40;;;13.20;99.90;;;;;;6302037;22;20000;-77
2021/09/29 00:37:33;;;;;;;13.73;9.05;;;13.20;99.90;;;;;;6275113;22;20485;-77
2021/09/29 00:39:58;;;;;;;12.30;8.60;;;13.20;99.90;;;;;;6301580;22;20002;-78
2021/09/29 00:42:24;;;;;;;14.95;9.00;;;13.20;99.90;;;;;;6301860;22;20007;-78
2021/09/29 00:44:51;;;;;;;12.88;8.63;;;13.20;99.90;;;;;;6302240;22;20086;-79
2021/09/29 00:47:17;;;;;;;10.85;8.63;;;13.20;99.90;;;;;;6302312;22;20422;-78
2021/09/29 00:49:43;;;;;;;11.15;8.82;;;13.20;99.90;;;;;;6301138;22;20425;-79
2021/09/29 00:52:08;;;;;;;13.43;9.18;;;13.20;99.90;;;;;;6301797;22;20006;-78
2021/09/29 00:54:34;;;;;;;10.82;9.05;;;13.10;99.90;;;;;;6302257;22;20018;-78
2021/09/29 00:57:00;;;;;;;10.55;8.52;;;13.10;99.90;;;;;;6302081;22;20322;-79
2021/09/29 00:59:25;;;;;;;11.30;8.65;;;13.10;99.90;;;;;;6300711;22;20006;-78
2021/09/29 01:01:52;;;;;;;12.50;8.60;;;13.10;99.90;;;;;;6301675;22;20015;-78
2021/09/29 01:04:21;;;;;;;16.17;8.85;;;13.20;99.90;;;;;;6302454;22;20068;-78
2021/09/29 01:07:03;;;;;;;13.00;8.82;;;13.10;99.90;;;;;;6302414;22;20136;-78
2021/09/29 01:09:51;;;;;;;13.32;8.43;;;13.10;99.90;;;;;;6301856;22;20071;-78
2021/09/29 01:12:53;;;;;;;12.13;8.48;;;13.20;99.90;;;;;;6302099;22;20037;-77
2021/09/29 01:15:35;;;;;;;11.00;8.32;;;13.20;99.90;;;;;;6276585;22;20549;-79
2021/09/29 01:18:06;;;;;;;11.70;8.63;;;13.20;99.90;;;;;;6300149;22;20000;-77
2021/09/29 01:20:42;;;;;;;11.55;7.93;;;13.20;99.90;;;;;;6302409;22;20117;-79
2021/09/29 01:23:29;;;;;;;9.75;8.15;;;13.20;99.90;;;;;;6275187;22;20303;-78
2021/09/29 01:25:57;;;;;;;10.13;8.27;;;13.20;99.90;;;;;;6302441;22;20010;-78
2021/09/29 01:28:32;;;;;;;11.98;8.07;;;13.20;99.90;;;;;;6302788;22;19999;-76
2021/09/29 01:30:59;;;;;;;11.52;8.27;;;13.20;99.90;;;;;;6300546;22;20577;-77
2021/09/29 01:33:27;;;;;;;15.82;8.30;;;13.30;99.90;;;;;;6302853;22;19999;-77
2021/09/29 01:35:52;;;;;;;9.85;7.78;;;13.30;99.90;;;;;;6301600;22;20037;-77
2021/09/29 01:38:18;;;;;;;14.57;8.55;;;13.30;99.90;;;;;;6303083;22;19991;-77
2021/09/29 01:40:44;;;;;;;12.43;8.07;;;13.30;99.90;;;;;;6303098;22;20015;-78
2021/09/29 01:43:10;;;;;;;14.60;8.60;;;13.40;99.90;;;;;;6304017;22;20014;-78
2021/09/29 01:45:36;;;;;;;12.75;8.90;;;13.40;99.90;;;;;;6303541;22;20011;-77
2021/09/29 01:48:02;;;;;;;12.27;6.90;;;13.40;99.90;;;;;;6303308;22;20418;-78
2021/09/29 01:50:29;;;;;;;14.43;7.43;;;13.40;99.90;;;;;;6276492;22;20006;-77
2021/09/29 01:52:58;;;;;;;13.40;8.65;;;13.40;99.90;;;;;;6301973;22;20011;-78
2021/09/29 01:55:26;;;;;;;12.93;8.68;;;13.40;99.90;;;;;;6303071;22;20014;-77
2021/09/29 01:57:53;;;;;;;10.15;8.20;;;13.40;99.90;;;;;;6303061;22;20018;-77
2021/09/29 02:00:19;;;;;;;13.82;7.93;;;13.50;99.90;;;;;;6303324;22;20517;-79
2021/09/29 02:02:45;;;;;;;14.77;8.93;;;13.50;99.90;;;;;;6303991;22;20584;-77
2021/09/29 02:05:12;;;;;;;15.15;9.18;;;13.50;99.90;;;;;;6303485;22;20063;-78
2021/09/29 02:07:39;;;;;;;17.35;9.57;;;13.60;99.90;;;;;;6303558;22;19995;-77
2021/09/29 02:10:07;;;;;;;14.45;9.52;;;13.60;99.90;;;;;;6302635;22;20429;-79
2021/09/29 02:12:32;;;;;;;13.93;9.32;;;13.70;99.90;;;;;;6301778;22;20335;-77
2021/09/29 02:14:58;;;;;;;15.88;9.35;;;13.70;99.90;;;;;;6303372;22;20049;-77
2021/09/29 02:17:24;;;;;;;15.25;9.32;;;13.70;99.90;;;;;;6304052;22;19995;-77
2021/09/29 02:19:49;;;;;;;15.25;9.45;;;13.80;99.90;;;;;;6302971;22;20426;-77
2021/09/29 02:22:16;;;;;;;15.57;10.00;;;13.80;99.90;;;;;;6303739;22;20014;-77
2021/09/29 02:24:46;;;;;;;17.80;9.88;;;13.90;99.90;;;;;;6302876;22;20004;-78
2021/09/29 02:27:12;;;;;;;14.20;10.38;;;13.90;99.90;;;;;;6304271;22;20487;-78
2021/09/29 02:29:38;;;;;;;15.20;10.60;;;13.90;99.90;;;;;;6303028;22;20310;-77
2021/09/29 02:32:04;;;;;;;17.45;9.65;;;13.90;99.90;;;;;;6273768;22;19999;-76
2021/09/29 02:34:30;;;;;;;13.60;9.93;;;13.90;99.90;;;;;;6303816;22;20307;-76
2021/09/29 02:36:55;;;;;;;12.45;9.55;;;14.00;99.90;;;;;;6275356;22;20049;-77
2021/09/29 02:39:21;;;;;;;12.07;9.15;;;14.00;99.90;;;;;;6302868;22;20039;-77
2021/09/29 02:41:47;;;;;;;17.48;9.68;;;14.10;99.90;;;;;;6303281;22;20007;-77
2021/09/29 02:44:12;;;;;;;16.40;10.02;;;14.10;99.90;;;;;;6275671;22;20019;-77
2021/09/29 02:46:40;;;;;;;13.98;10.13;;;14.20;99.90;;;;;;6304036;22;20086;-76
2021/09/29 02:49:06;;;;;;;14.23;9.82;;;14.20;99.90;;;;;;6301267;22;20487;-77
2021/09/29 02:51:32;;;;;;;13.30;10.02;;;14.20;99.90;;;;;;6305409;22;20735;-79
2021/09/29 02:53:57;;;;;;;13.57;9.57;;;14.30;99.90;;;;;;6304115;22;20078;-77
2021/09/29 02:56:23;;;;;;;12.52;8.68;;;14.30;99.90;;;;;;6303224;22;20007;-77
2021/09/29 02:58:49;;;;;;;12.50;8.68;;;14.40;99.90;;;;;;6302522;22;20067;-79
2021/09/29 03:01:15;;;;;;;17.13;9.73;;;14.40;99.90;;;;;;6301075;22;20008;-79
2021/09/29 03:03:41;;;;;;;15.30;10.02;;;14.50;99.90;;;;;;6303283;22;20007;-78
2021/09/29 03:06:06;;;;;;;14.95;10.75;;;14.50;99.90;;;;;;6302549;22;20011;-79
2021/09/29 03:08:32;;;;;;;13.15;9.45;;;14.50;99.90;;;;;;6302052;22;20035;-78
2021/09/29 03:10:57;;;;;;;18.63;8.93;;;14.50;99.90;;;;;;6302465;22;20464;-78
2021/09/29 03:13:23;;;;;;;16.00;9.38;;;14.60;99.90;;;;;;6303612;22;20326;-78
2021/09/29 03:15:48;;;;;;;12.65;9.27;;;14.60;99.90;;;;;;6302727;22;20003;-78
2021/09/29 03:18:14;;;;;;;14.80;9.55;;;14.60;99.90;;;;;;6302331;22;20003;-77
2021/09/29 03:20:40;;;;;;;15.60;9.13;;;14.70;99.90;;;;;;6300995;22;20414;-78
2021/09/29 03:23:05;;;;;;;15.80;10.00;;;14.70;99.90;;;;;;6302459;22;20035;-78
2021/09/29 03:25:31;;;;;;;16.77;9.13;;;14.80;99.90;;;;;;6303079;22;20523;-78
2021/09/29 03:27:57;;;;;;;16.95;9.82;;;14.70;99.90;;;;;;6301951;22;20061;-77
2021/09/29 03:30:22;;;;;;;14.35;9.85;;;14.80;99.90;;;;;;6303191;22;20292;-77
2021/09/29 03:32:48;;;;;;;15.50;10.88;;;14.80;99.90;;;;;;6301134;22;20011;-78
2021/09/29 03:35:13;;;;;;;15.95;10.45;;;14.90;99.90;;;;;;6303018;22;20078;-78
2021/09/29 03:37:40;;;;;;;15.40;9.75;;;14.80;99.90;;;;;;6302532;22;20372;-77
2021/09/29 03:40:11;;;;;;;16.23;9.95;;;14.90;99.90;;;;;;6303152;22;20449;-78
2021/09/29 03:42:37;;;;;;;20.25;10.85;;;15.00;99.90;;;;;;6302097;22;19998;-77
2021/09/29 03:45:04;;;;;;;15.73;9.18;;;15.00;99.90;;;;;;6302656;22;20007;-78
2021/09/29 03:47:29;;;;;;;14.65;10.02;;;15.00;99.90;;;;;;6302718;22;20309;-78
2021/09/29 03:49:56;;;;;;;13.55;9.43;;;15.00;99.90;;;;;;6302187;22;20001;-78
2021/09/29 03:52:21;;;;;;;21.92;10.23;;;15.10;99.90;;;;;;6302748;22;20011;-78
2021/09/29 03:54:47;;;;;;;11.38;9.05;;;15.10;99.90;;;;;;6301117;22;20332;-78
2021/09/29 03:57:13;;;;;;;14.15;10.18;;;15.10;99.90;;;;;;6272306;22;19999;-80
2021/09/29 03:59:39;;;;;;;16.42;10.35;;;15.10;99.90;;;;;;6270839;22;20299;-78
2021/09/29 04:02:04;;;;;;;17.00;10.35;;;15.20;99.90;;;;;;6298338;22;20003;-78
2021/09/29 04:04:30;;;;;;;17.45;10.55;;;15.20;99.90;;;;;;6298566;22;20031;-79
2021/09/29 04:06:57;;;;;;;17.80;10.38;;;15.30;99.90;;;;;;6299054;22;20007;-79
2021/09/29 04:09:22;;;;;;;20.98;9.80;;;15.30;99.90;;;;;;6271273;22;20018;-78
2021/09/29 04:11:48;;;;;;;15.30;10.00;;;15.30;99.90;;;;;;6270380;22;20003;-78
2021/09/29 04:14:15;;;;;;;19.92;9.93;;;15.30;99.90;;;;;;6298643;22;20110;-79
2021/09/29 04:16:41;;;;;;;17.50;9.77;;;15.30;99.90;;;;;;6299063;22;20027;-78
2021/09/29 04:19:06;;;;;;;19.75;10.23;;;15.30;99.90;;;;;;6298445;22;20034;-79
2021/09/29 04:21:32;;;;;;;18.02;11.05;;;15.40;99.90;;;;;;6298441;22;20654;-81
2021/09/29 04:23:57;;;;;;;14.70;9.95;;;15.40;99.90;;;;;;6297618;22;20057;-77
2021/09/29 04:26:23;;;;;;;18.67;9.93;;;15.40;99.90;;;;;;6299615;22;20015;-78
2021/09/29 04:28:49;;;;;;;22.33;9.80;;;15.40;99.90;;;;;;6296578;22;20003;-79
2021/09/29 04:31:16;;;;;;;20.95;10.18;;;15.40;99.90;;;;;;6285359;22;20019;-78
2021/09/29 04:33:41;;;;;;;17.75;9.55;;;15.40;99.90;;;;;;6299185;22;20014;-79
2021/09/29 04:36:07;;;;;;;17.98;10.50;;;15.50;99.90;;;;;;6271699;22;20704;-79
2021/09/29 04:38:32;;;;;;;18.98;9.75;;;15.50;99.90;;;;;;6298459;22;20432;-79
2021/09/29 04:40:58;;;;;;;22.15;10.95;;;15.50;99.90;;;;;;6297264;22;20003;-80
2021/09/29 04:43:23;;;;;;;17.70;11.30;;;15.50;99.90;;;;;;6293815;22;20034;-77
2021/09/29 04:45:49;;;;;;;17.77;10.68;;;15.50;99.90;;;;;;6296987;22;20056;-79
2021/09/29 04:48:15;;;;;;;20.15;10.10;;;15.50;99.90;;;;;;6296391;22;20003;-79
2021/09/29 04:50:41;;;;;;;20.02;10.88;;;15.50;99.90;;;;;;6293695;22;20050;-79
2021/09/29 04:53:06;;;;;;;22.88;11.23;;;15.60;99.90;;;;;;6298597;22;19999;-79
2021/09/29 04:55:32;;;;;;;22.10;10.63;;;15.60;99.90;;;;;;6297891;22;20107;-77
2021/09/29 04:58:01;;;;;;;21.25;11.57;;;15.50;99.90;;;;;;6269728;22;20500;-79
2021/09/29 05:00:27;;;;;;;21.58;11.50;;;15.60;99.90;;;;;;6298705;22;20430;-78
2021/09/29 05:02:52;;;;;;;19.25;11.77;;;15.60;99.90;;;;;;6297034;22;20003;-76
2021/09/29 05:05:18;;;;;;;22.20;11.68;;;15.60;99.90;;;;;;6297567;22;20053;-78
2021/09/29 05:07:48;;;;;;;19.77;11.02;;;15.60;99.90;;;;;;6298429;22;20034;-79
2021/09/29 05:10:25;;;;;;;19.63;10.48;;;15.60;99.90;;;;;;6273007;22;19999;-77
2021/09/29 05:12:52;;;;;;;16.58;11.02;;;15.60;99.90;;;;;;6270580;22;20401;-78
2021/09/29 05:15:18;;;;;;;17.70;10.82;;;15.60;99.90;;;;;;6299489;22;19999;-78
2021/09/29 05:17:43;;;;;;;23.55;11.93;;;15.60;99.90;;;;;;6296527;22;20004;-81
2021/09/29 05:20:09;;;;;;;25.77;11.57;;;15.60;99.90;;;;;;6297859;22;20006;-77
2021/09/29 05:22:35;;;;;;;22.17;10.85;;;15.70;99.90;;;;;;6269728;22;20033;-77
2021/09/29 05:25:00;;;;;;;22.85;12.13;;;15.70;99.90;;;;;;6296297;22;20069;-78
2021/09/29 05:27:26;;;;;;;22.80;12.52;;;15.70;99.90;;;;;;6298417;22;20003;-77
2021/09/29 05:29:51;;;;;;;22.55;12.00;;;15.70;99.90;;;;;;6298901;22;20007;-78
2021/09/29 05:32:17;;;;;;;25.00;11.90;;;15.70;99.90;;;;;;6299885;22;20010;-77
2021/09/29 05:34:43;;;;;;;24.23;11.77;;;15.70;99.90;;;;;;6299864;22;20090;-77
2021/09/29 05:37:08;;;;;;;20.20;11.75;;;15.70;99.90;;;;;;6299160;22;20477;-78
2021/09/29 05:39:34;;;;;;;20.60;11.75;;;15.70;99.90;;;;;;6299910;22;20496;-77
2021/09/29 05:42:00;;;;;;;19.17;11.13;;;15.70;99.90;;;;;;6301442;22;20003;-77
2021/09/29 05:44:26;;;;;;;23.35;12.07;;;15.80;99.90;;;;;;6301316;22;20007;-77
2021/09/29 05:46:51;;;;;;;23.08;12.82;;;15.80;99.90;;;;;;6301938;22;20108;-78
2021/09/29 05:49:17;;;;;;;18.58;10.73;;;15.80;99.90;;;;;;6299558;22;20007;-79
2021/09/29 05:51:45;;;;;;;20.38;13.00;;;15.90;99.90;;;;;;6301382;22;19995;-77
2021/09/29 05:54:11;;;;;;;22.92;13.60;;;15.90;99.90;;;;;;6301635;22;20014;-77
2021/09/29 05:56:37;;;;;;;20.55;12.73;;;15.90;99.90;;;;;;6301361;22;19999;-77
2021/09/29 05:59:03;;;;;;;23.38;13.32;;;15.90;99.90;;;;;;6300806;22;20003;-78
2021/09/29 06:01:28;;;;;;;21.48;12.45;;;15.90;99.90;;;;;;6300833;22;20410;-78
2021/09/29 06:03:54;;;;;;;24.13;12.50;;;15.90;99.90;;;;;;6301379;22;20390;-78
2021/09/29 06:06:19;;;;;;;17.90;11.35;;;15.90;99.90;;;;;;6302151;22;20066;-78
2021/09/29 06:08:44;;;;;;;17.20;11.00;;;16.00;99.90;;;;;;6301019;22;19996;-78
2021/09/29 06:11:10;;;;;;;27.38;13.45;;;15.90;99.90;;;;;;6300670;22;20508;-78
2021/09/29 06:13:35;;;;;;;20.38;11.38;;;16.00;99.90;;;;;;6301533;22;20014;-77
2021/09/29 06:16:06;;;;;;;18.88;12.52;;;16.00;99.90;;;;;;6300089;22;20031;-77
2021/09/29 06:18:34;;;;;;;24.05;13.68;;;16.10;99.90;;;;;;6300218;22;20755;-78
2021/09/29 06:21:01;;;;;;;22.80;12.68;;;16.10;99.90;;;;;;6300106;22;20030;-78
2021/09/29 06:23:27;;;;;;;17.63;11.18;;;16.10;99.90;;;;;;6301336;22;20011;-78
2021/09/29 06:25:52;;;;;;;22.27;11.80;;;16.10;99.90;;;;;;6301586;22;20003;-80
2021/09/29 06:28:18;;;;;;;20.30;12.30;;;16.10;99.90;;;;;;6272987;22;20000;-78
2021/09/29 06:30:43;;;;;;;20.13;11.50;;;16.20;99.90;;;;;;6300148;22;20002;-79
2021/09/29 06:33:09;;;;;;;19.95;11.95;;;16.20;99.90;;;;;;6300016;22;20634;-77
2021/09/29 06:35:35;;;;;;;23.75;11.75;;;16.20;99.90;;;;;;6300462;22;20398;-78
2021/09/29 06:38:01;;;;;;;24.48;12.38;;;16.20;99.90;;;;;;6300230;22;19998;-80
2021/09/29 06:40:27;;;;;;;23.75;13.18;;;16.20;99.90;;;;;;6300451;22;20389;-77
2021/09/29 06:42:54;;;;;;;21.90;11.90;;;16.20;99.90;;;;;;6300313;22;19991;-80
2021/09/29 06:45:20;;;;;;;21.60;11.98;;;16.20;99.90;;;;;;6299457;22;19996;-78
2021/09/29 06:47:48;;;;;;;20.92;11.82;;;16.20;99.90;;;;;;6300422;22;20003;-79
2021/09/29 06:50:16;;;;;;;18.92;12.82;;;16.30;99.90;;;;;;6299834;22;20010;-79
2021/09/29 06:52:41;;;;;;;19.27;12.02;;;16.20;99.90;;;;;;6299673;22;20003;-78
2021/09/29 06:55:07;;;;;;;19.67;13.55;;;16.30;99.90;;;;;;6300572;22;20006;-78
2021/09/29 06:57:33;;;;;;;20.10;12.20;;;16.30;99.90;;;;;;6300429;22;20013;-78
2021/09/29 06:59:59;;;;;;;20.15;11.13;;;16.30;99.90;;;;;;6273058;22;20086;-77
2021/09/29 07:02:25;;;;;;;26.23;12.70;;;16.30;99.90;;;;;;6299209;22;20422;-79
2021/09/29 07:04:50;;;;;;;17.85;11.70;;;16.30;99.90;;;;;;6300376;22;20049;-79
2021/09/29 07:07:16;;;;;;;19.33;12.48;;;16.40;99.90;;;;;;6300031;22;20890;-79
2021/09/29 07:09:41;;;;;;;22.17;12.85;;;16.40;99.90;;;;;;6298844;22;20030;-79
2021/09/29 07:12:07;;;;;;;20.90;12.55;;;16.40;99.90;;;;;;6298485;22;20004;-77
2021/09/29 07:14:33;;;;;;;21.75;13.73;;;16.40;99.90;;;;;;6299642;22;20027;-78
2021/09/29 07:17:00;;;;;;;21.70;12.38;;;16.30;99.90;;;;;;6300171;22;20003;-78
2021/09/29 07:19:26;;;;;;;16.88;11.75;;;16.30;99.90;;;;;;6299584;22;20009;-79
2021/09/29 07:21:52;;;;;;;20.85;12.38;;;16.30;99.90;;;;;;6299382;22;20095;-78
2021/09/29 07:24:18;;;;;;;20.75;13.25;;;16.30;99.90;;;;;;6272852;22;20047;-80
2021/09/29 07:26:43;;;;;;;18.65;12.18;;;16.20;99.90;;;;;;6300080;22;20007;-78
2021/09/29 07:29:10;;;;;;;23.35;12.85;;;16.20;99.90;;;;;;6271111;22;20003;-78
2021/09/29 07:31:37;;;;;;;20.90;12.40;;;16.20;99.90;;;;;;6299051;22;20091;-78
2021/09/29 07:34:02;;;;;;;23.67;12.55;;;16.20;99.90;;;;;;6299278;22;20016;-77
2021/09/29 07:36:28;;;;;;;17.70;11.50;;;16.20;99.90;;;;;;6272492;22;20082;-78
2021/09/29 07:38:53;;;;;;;20.90;11.32;;;16.20;99.90;;;;;;6299420;22;20006;-78
2021/09/29 07:41:19;;;;;;;21.40;11.82;;;16.10;99.90;;;;;;6299232;22;19999;-77
2021/09/29 07:43:44;;;;;;;24.55;13.00;;;16.20;99.90;;;;;;6299807;22;20019;-78
2021/09/29 07:46:10;;;;;;;23.10;12.13;;;16.20;99.90;;;;;;6299118;22;20414;-77
2021/09/29 07:48:35;;;;;;;20.58;12.25;;;16.20;99.90;;;;;;6298930;22;20003;-78
2021/09/29 07:51:01;;;;;;;17.83;12.07;;;16.20;99.90;;;;;;6298450;22;20337;-78
2021/09/29 07:53:27;;;;;;;20.13;12.32;;;16.10;99.90;;;;;;6299484;22;19999;-78
2021/09/29 07:55:54;;;;;;;22.30;12.75;;;16.20;99.90;;;;;;6299557;22;20057;-77
2021/09/29 07:58:24;;;;;;;22.15;12.18;;;16.20;99.90;;;;;;6299198;22;20084;-77
2021/09/29 08:00:50;;;;;;;22.63;12.75;;;16.20;99.90;;;;;;6299327;22;20430;-77
2021/09/29 08:03:15;;;;;;;23.05;11.60;;;16.20;99.90;;;;;;6297933;22;20019;-78
2021/09/29 08:05:41;;;;;;;24.00;13.27;;;16.20;99.90;;;;;;6299045;22;20010;-77
2021/09/29 08:08:07;;;;;;;24.77;13.82;;;16.30;99.90;;;;;;6298750;22;19995;-79
2021/09/29 08:10:33;;;;;;;18.52;11.88;;;16.30;99.90;;;;;;6298937;22;20030;-78
2021/09/29 08:12:58;;;;;;;19.77;12.23;;;16.30;99.90;;;;;;6298707;22;20006;-78
2021/09/29 08:15:24;;;;;;;24.02;13.82;;;16.40;99.90;;;;;;6298916;22;20391;-78
2021/09/29 08:17:54;;;;;;;20.15;13.23;;;16.40;99.90;;;;;;6271971;22;20004;-78
2021/09/29 08:20:20;;;;;;;20.65;12.38;;;16.40;99.90;;;;;;6299417;22;19999;-78
2021/09/29 08:22:50;;;;;;;21.73;13.15;;;16.40;99.90;;;;;;6298332;22;20567;-77
2021/09/29 08:25:35;;;;;;;20.58;12.63;;;16.50;99.90;;;;;;6298452;22;20076;-77
2021/09/29 08:28:46;;;;;;;20.58;12.82;;;16.50;99.90;;;;;;6299445;22;20017;-77
2021/09/29 08:30:59;;;;;;;21.25;13.48;;;16.50;99.90;;;;;;6294737;22;20360;-78
2021/09/29 08:36:51;;;;;;;19.15;12.45;;;16.60;99.90;;;;;;6309235;22;20006;-78
2021/09/29 08:44:08;;;;;;;20.23;13.23;;;16.70;99.90;;;;;;6309526;22;20083;-78
2021/09/29 08:46:50;;;;;;;18.20;11.98;;;16.80;99.90;;;;;;6271308;22;20030;-79
2021/09/29 08:49:28;;;;;;;21.00;13.25;;;16.80;99.90;;;;;;6298768;22;20003;-78
2021/09/29 08:54:40;;;;;;;18.90;12.02;;;17.00;99.90;;;;;;6299330;22;20018;-78
2021/09/29 08:58:20;;;;;;;18.17;13.18;;;17.00;99.90;;;;;;6270886;22;20005;-78
2021/09/29 09:16:46;;;;;;;27.95;12.73;;;17.20;99.90;;;;;;6234059;23;20000;-78
2021/09/29 09:19:14;;;;;;;17.10;11.88;;;17.20;99.90;;;;;;6232942;23;20183;-77
2021/09/29 09:21:52;;;;;;;19.27;10.02;;;17.30;99.90;;;;;;6263747;22;20052;-77
2021/09/29 09:24:26;;;;;;;15.45;11.20;;;17.40;99.90;;;;;;6298560;22;20425;-76
2021/09/29 09:26:56;;;;;;;18.95;11.48;;;17.50;99.90;;;;;;6299111;22;20039;-77
2021/09/29 09:29:22;;;;;;;15.15;11.02;;;17.60;99.90;;;;;;6297642;22;20366;-77
2021/09/29 09:31:48;;;;;;;22.83;12.68;;;17.70;99.90;;;;;;6298366;22;20049;-77
2021/09/29 09:34:13;;;;;;;16.33;11.50;;;17.80;99.90;;;;;;6298318;22;20000;-78
2021/09/29 09:36:46;;;;;;;18.55;11.88;;;17.90;99.90;;;;;;6299283;22;20299;-78
2021/09/29 09:39:16;;;;;;;16.63;10.20;;;18.00;99.60;;;;;;6298333;22;20183;-78
2021/09/29 09:42:03;;;;;;;19.85;11.50;;;18.10;99.20;;;;;;6298812;22;20010;-77
2021/09/29 09:44:31;;;;;;;15.32;10.32;;;18.20;99.30;;;;;;6298945;22;20008;-77
2021/09/29 09:47:04;;;;;;;17.38;11.02;;;18.20;99.30;;;;;;6299835;22;20011;-77
2021/09/29 09:49:30;;;;;;;19.40;11.38;;;18.20;99.30;;;;;;6298280;22;19999;-78
2021/09/29 09:51:59;;;;;;;15.60;10.80;;;18.20;99.50;;;;;;6298673;22;20082;-78
2021/09/29 09:54:37;;;;;;;13.23;10.10;;;18.20;99.30;;;;;;6299317;22;19999;-77
2021/09/29 09:57:07;;;;;;;16.45;11.48;;;18.20;98.90;;;;;;6300281;22;20011;-78
2021/09/29 09:59:33;;;;;;;14.75;9.73;;;18.20;99.20;;;;;;6300519;22;20058;-78
2021/09/29 10:01:59;;;;;;;18.48;10.55;;;18.20;99.20;;;;;;6300642;22;20361;-78
2021/09/29 10:04:24;;;;;;;17.58;10.90;;;18.20;99.10;;;;;;6300788;22;20360;-77
2021/09/29 10:06:50;;;;;;;15.23;9.95;;;18.20;98.90;;;;;;6301533;22;19999;-78
2021/09/29 10:11:58;;;;;;;13.60;9.80;;;18.20;99.70;;;;;;6301419;22;19999;-77
2021/09/29 10:28:11;;;;;;;10.73;8.13;;;18.80;97.40;;;;;;6300977;22;20073;-76
2021/09/29 10:30:54;;;;;;;13.75;9.07;;;18.90;97.90;;;;;;6301262;22;19999;-77
2021/09/29 10:33:27;;;;;;;11.18;8.10;;;19.10;98.40;;;;;;6299877;22;20013;-78
2021/09/29 10:36:08;;;;;;;9.77;6.93;;;19.20;97.50;;;;;;6301062;22;20003;-78
2021/09/29 10:41:22;;;;;;;8.43;6.30;;;19.50;97.00;;;;;;6302909;22;19999;-78
2021/09/29 10:46:52;;;;;;;7.95;5.43;;;19.70;95.60;;;;;;6276503;22;20000;-80
2021/09/29 10:49:36;;;;;;;7.90;5.60;;;19.70;95.70;;;;;;6300261;22;20027;-79
2021/09/29 11:06:18;;;;;;;7.82;5.07;;;19.10;95.50;;;;;;6301371;22;20009;-79
2021/09/29 11:28:23;;;;;;;7.40;5.13;;;19.50;94.70;;;;;;6300409;22;20099;-78
2021/09/29 11:30:55;;;;;;;7.47;4.75;;;19.60;94.80;;;;;;6300098;22;20030;-78
2021/09/29 11:33:30;;;;;;;6.50;4.90;;;19.70;94.50;;;;;;6300150;22;20014;-78
2021/09/29 11:36:12;;;;;;;8.68;4.72;;;19.80;94.00;;;;;;6300653;22;20495;-77
2021/09/29 12:14:20;;;;;;;3.05;2.20;;;21.60;90.00;;;;;;6270489;22;20007;-78
2021/09/29 12:16:48;;;;;;;4.07;2.50;;;21.60;90.90;;;;;;6300027;22;20007;-79
2021/09/29 12:19:23;;;;;;;2.20;2.00;;;21.50;90.30;;;;;;6299046;22;20007;-78
2021/09/29 12:21:51;;;;;;;3.03;2.20;;;21.40;90.40;;;;;;6299100;22;19996;-78
2021/09/29 12:24:45;;;;;;;2.35;2.05;;;21.40;90.00;;;;;;6299847;22;20418;-78
2021/09/29 12:27:23;;;;;;;3.45;1.98;;;21.50;88.20;;;;;;6299572;22;20018;-78
2021/09/29 12:29:51;;;;;;;2.20;1.90;;;21.60;87.80;;;;;;6298785;22;19999;-78
2021/09/29 12:37:36;;;;;;;2.92;1.80;;;21.70;87.50;;;;;;6299205;22;20473;-77
2021/09/29 12:40:03;;;;;;;3.65;1.48;;;21.90;84.60;;;;;;6298880;22;20064;-77
2021/09/29 12:42:33;;;;;;;2.08;1.00;;;21.90;84.90;;;;;;6299626;22;20098;-77
2021/09/29 12:44:59;;;;;;;1.15;1.02;;;21.70;82.40;;;;;;6299332;22;20014;-77
2021/09/29 12:50:04;;;;;;;3.80;1.48;;;21.50;82.70;;;;;;6298910;22;20068;-78
2021/09/29 12:52:33;;;;;;;2.08;1.38;;;21.30;83.40;;;;;;6299385;22;20080;-78
2021/09/29 12:55:00;;;;;;;2.13;1.00;;;21.40;83.00;;;;;;6299588;22;20071;-78
2021/09/29 12:57:29;;;;;;;4.72;1.17;;;21.40;83.20;;;;;;6299744;22;19996;-78
2021/09/29 12:59:55;;;;;;;1.77;1.35;;;21.50;80.00;;;;;;6299523;22;20003;-78
2021/09/29 13:02:21;;;;;;;3.47;1.30;;;21.50;81.00;;;;;;6299142;22;20059;-78
2021/09/29 13:04:47;;;;;;;2.80;1.15;;;21.50;82.50;;;;;;6299416;22;20095;-78
2021/09/29 13:07:12;;;;;;;2.67;1.08;;;21.60;82.10;;;;;;6300151;22;20031;-78
2021/09/29 13:09:38;;;;;;;1.25;0.73;;;21.60;78.80;;;;;;6298689;22;20482;-78
2021/09/29 13:12:03;;;;;;;3.83;0.82;;;21.50;79.50;;;;;;6299364;22;20014;-78
2021/09/29 13:14:31;;;;;;;1.83;0.90;;;21.50;80.70;;;;;;6298464;22;20011;-78
2021/09/29 13:16:57;;;;;;;3.05;0.95;;;21.50;79.60;;;;;;6299395;22;20000;-77
2021/09/29 13:19:45;;;;;;;1.58;0.90;;;21.60;79.30;;;;;;6298100;22;20440;-78
2021/09/29 13:22:22;;;;;;;1.33;0.80;;;21.70;79.70;;;;;;6301019;22;19999;-77
2021/09/29 13:27:31;;;;;;;2.28;1.08;;;21.70;78.80;;;;;;6305608;22;20017;-78
2021/09/29 13:38:08;;;;;;;2.55;0.90;;;21.60;77.90;;;;;;6313849;22;20006;-78
2021/09/29 13:40:34;;;;;;;1.42;0.82;;;21.50;75.90;;;;;;6304055;22;20360;-79
2021/09/29 13:43:01;;;;;;;1.75;0.95;;;21.50;77.20;;;;;;6303329;22;20003;-78
2021/09/29 13:45:27;;;;;;;2.47;0.88;;;21.60;75.40;;;;;;6304117;22;20010;-79
2021/09/29 13:47:52;;;;;;;1.25;0.70;;;21.50;76.20;;;;;;6303467;22;20035;-85
2021/09/29 13:50:19;;;;;;;1.73;0.90;;;21.50;74.30;;;;;;6306014;22;20006;-88
2021/09/29 13:52:45;;;;;;;1.58;1.00;;;21.40;75.90;;;;;;6278308;22;20129;-88
2021/09/29 13:55:15;;;;;;;1.92;0.82;;;21.40;75.20;;;;;;6305529;22;20076;-87
2021/09/29 13:57:53;;;;;;;1.10;0.85;;;21.40;75.60;;;;;;6278316;22;20008;-89
2021/09/29 14:30:11;;;;;;;0.90;0.60;;;21.50;76.70;;;;;;6302736;22;20030;-78
2021/09/29 14:32:56;;;;;;;1.40;0.80;;;21.40;74.00;;;;;;6303621;22;20014;-78
2021/09/29 14:35:22;;;;;;;1.67;0.73;;;21.30;75.30;;;;;;6303474;22;20060;-77
2021/09/29 14:37:49;;;;;;;2.50;1.30;;;21.30;76.40;;;;;;6302909;22;20372;-77
2021/09/29 14:40:16;;;;;;;1.55;0.60;;;21.20;75.90;;;;;;6303733;22;20006;-79
2021/09/29 14:42:41;;;;;;;2.47;0.73;;;21.10;74.80;;;;;;6303607;22;20004;-77
2021/09/29 14:45:07;;;;;;;1.80;0.68;;;20.90;74.90;;;;;;6304075;22;20091;-77
2021/09/29 14:47:33;;;;;;;1.23;0.63;;;20.90;74.90;;;;;;6303073;22;20006;-77
2021/09/29 14:49:58;;;;;;;0.95;0.60;;;20.80;75.30;;;;;;6302895;22;20003;-76
2021/09/29 14:52:24;;;;;;;2.17;0.70;;;20.80;75.60;;;;;;6301857;22;20022;-76
2021/09/29 14:54:49;;;;;;;4.78;1.23;;;20.70;75.70;;;;;;6303897;22;20422;-79
2021/09/29 14:57:15;;;;;;;2.08;0.90;;;20.70;75.60;;;;;;6303221;22;20065;-77
2021/09/29 14:59:44;;;;;;;1.65;0.95;;;20.70;75.90;;;;;;6302718;22;20011;-77
2021/09/29 15:02:11;;;;;;;3.22;1.00;;;20.60;77.30;;;;;;6303338;22;19999;-76
2021/09/29 15:04:36;;;;;;;0.90;0.80;;;20.60;78.00;;;;;;6303572;22;20049;-78
2021/09/29 15:07:02;;;;;;;1.98;0.70;;;20.60;77.60;;;;;;6276204;22;20011;-78
2021/09/29 15:09:28;;;;;;;3.33;0.88;;;20.60;78.00;;;;;;6301634;22;20504;-78
2021/09/29 15:11:53;;;;;;;1.30;0.80;;;20.60;78.30;;;;;;6301977;22;20052;-77
2021/09/29 15:15:14;;;;;;;4.18;0.93;;;20.50;79.10;;;;;;6303363;22;20023;-78
2021/09/29 15:17:12;;;;;;;2.03;1.20;;;20.60;79.00;;;;;;6284772;22;20045;-77
2021/09/29 15:19:56;;;;;;;5.97;2.28;;;20.60;78.90;;;;;;6298526;22;19995;-81
2021/09/29 15:22:40;;;;;;;10.55;4.03;;;20.60;79.70;;;;;;6271730;22;20000;-77
2021/09/29 15:25:15;;;;;;;11.90;4.93;;;20.50;79.60;;;;;;6301719;22;20084;-80